createdAt,value
2022-12-01T00:10:22.107Z,46
2022-12-01T00:40:16.984Z,48
2022-12-01T01:10:14.644Z,49
2022-12-01T01:40:10.648Z,46
2022-12-01T02:10:11.409Z,49
2022-12-01T02:40:05.584Z,50
2022-12-01T03:10:04.101Z,51
2022-12-01T03:40:04.528Z,52
2022-12-01T04:10:06.201Z,51
2022-12-01T04:40:06.231Z,51
2022-12-01T05:10:05.096Z,51
2022-12-01T05:40:05.203Z,52
2022-12-01T06:10:02.154Z,55
2022-12-01T06:39:57.093Z,55
2022-12-01T07:09:52.217Z,57
2022-12-01T07:39:53.728Z,59
2022-12-01T08:09:48.982Z,58
2022-12-01T08:39:47.752Z,59
2022-12-01T09:09:49.834Z,61
2022-12-01T09:39:44.832Z,62
2022-12-01T10:09:41.797Z,60
2022-12-01T10:39:41.223Z,61
2022-12-01T11:09:36.903Z,63
2022-12-01T11:39:35.245Z,63
2022-12-01T12:10:39.064Z,63
2022-12-01T12:40:32.054Z,63
2022-12-01T13:10:32.905Z,64
2022-12-01T13:40:33.589Z,64
2022-12-01T14:10:30.277Z,62
2022-12-01T14:40:25.650Z,62
2022-12-01T15:10:24.464Z,64
2022-12-01T15:40:20.304Z,63
2022-12-01T16:10:20.326Z,79
2022-12-01T16:40:22.198Z,77
2022-12-01T17:10:21.201Z,68
2022-12-01T17:40:16.244Z,73
2022-12-01T18:10:19.239Z,77
2022-12-01T18:40:16.914Z,76
2022-12-01T19:10:18.527Z,89
2022-12-01T19:40:13.680Z,91
2022-12-01T20:10:13.666Z,91
2022-12-01T20:40:12.613Z,82
2022-12-01T21:10:12.917Z,82
2022-12-01T21:40:13.452Z,81
2022-12-01T22:10:11.431Z,80
2022-12-01T22:40:09.830Z,82
2022-12-01T23:10:06.929Z,85
2022-12-01T23:40:05.760Z,84
